Time;durP1;ratioP1;P1;durP2;ratioP2;P2;SDS_P1;SDS_P2;PMS_P1;PMS_P2;Temp;Humidity;BMP_temperature;BMP_pressure;BME280_temperature;BME280_humidity;BME280_pressure;Samples;Min_cycle;Max_cycle;Signal;HPM_P1;HPM_P2
2024/02/04 00:01:59;;;;;;;14.75;3.30;;;10.20;99.90;;;;;;6240897;23;20111;-66
2024/02/04 00:04:45;;;;;;;9.65;3.08;;;10.20;99.90;;;;;;6221244;23;20023;-67
2024/02/04 00:07:31;;;;;;;10.57;3.80;;;10.20;99.90;;;;;;6242530;23;20024;-67
2024/02/04 00:10:18;;;;;;;8.27;2.35;;;10.10;99.90;;;;;;6244876;23;20066;-67
2024/02/04 00:13:04;;;;;;;12.25;4.22;;;10.10;99.90;;;;;;6241666;23;20020;-67
2024/02/04 00:15:52;;;;;;;10.73;3.63;;;10.10;99.90;;;;;;6240712;23;20012;-66
2024/02/04 00:18:38;;;;;;;10.27;2.72;;;10.10;99.90;;;;;;6220300;23;20020;-67
2024/02/04 00:21:24;;;;;;;9.35;2.90;;;10.10;99.90;;;;;;6242946;23;20083;-67
2024/02/04 00:24:10;;;;;;;11.40;3.60;;;10.00;99.90;;;;;;6240683;23;20031;-66
2024/02/04 00:26:56;;;;;;;11.15;3.13;;;10.00;99.90;;;;;;6244490;23;20024;-67
2024/02/04 00:29:42;;;;;;;9.48;2.88;;;10.00;99.90;;;;;;6241512;23;20253;-67
2024/02/04 00:32:28;;;;;;;9.40;2.47;;;10.00;99.90;;;;;;6240952;23;20012;-67
2024/02/04 00:35:14;;;;;;;9.38;3.08;;;10.10;99.90;;;;;;6240315;23;20009;-67
2024/02/04 00:38:00;;;;;;;10.13;2.65;;;10.10;99.90;;;;;;6241230;23;20445;-68
2024/02/04 00:40:46;;;;;;;10.32;3.05;;;10.10;99.90;;;;;;6240835;23;20449;-68
2024/02/04 00:43:32;;;;;;;6.07;2.35;;;10.10;99.90;;;;;;6241458;23;20012;-67
2024/02/04 00:46:18;;;;;;;6.93;2.63;;;10.10;99.90;;;;;;6239534;23;20026;-68
2024/02/04 00:49:03;;;;;;;8.70;3.05;;;10.10;99.90;;;;;;6239541;23;20012;-67
2024/02/04 00:51:49;;;;;;;7.85;2.90;;;10.10;99.90;;;;;;6241343;23;20019;-68
2024/02/04 00:54:35;;;;;;;9.45;3.28;;;10.00;99.90;;;;;;6239335;23;20004;-67
2024/02/04 00:57:21;;;;;;;6.32;2.53;;;10.00;99.90;;;;;;6238879;23;20047;-67
2024/02/04 01:00:08;;;;;;;6.53;2.25;;;9.90;99.90;;;;;;6240484;23;20519;-68
2024/02/04 01:02:53;;;;;;;13.68;3.88;;;9.90;99.90;;;;;;6240590;23;20018;-68
2024/02/04 01:05:39;;;;;;;7.60;2.70;;;9.80;99.90;;;;;;6238695;23;20009;-67
2024/02/04 01:08:25;;;;;;;10.80;2.67;;;9.80;99.90;;;;;;6241099;23;20058;-67
2024/02/04 01:11:11;;;;;;;9.57;2.97;;;9.70;99.90;;;;;;6240081;23;20012;-68
2024/02/04 01:13:57;;;;;;;7.78;3.15;;;9.70;99.90;;;;;;6239342;23;20058;-66
2024/02/04 01:16:43;;;;;;;10.77;4.30;;;9.60;99.90;;;;;;6238202;23;20437;-68
2024/02/04 01:19:29;;;;;;;8.77;2.80;;;9.60;99.90;;;;;;6241280;23;20349;-68
2024/02/04 01:22:15;;;;;;;8.93;3.22;;;9.60;99.90;;;;;;6239528;23;20043;-68
2024/02/04 01:25:01;;;;;;;11.70;3.45;;;9.50;99.90;;;;;;6239601;23;20014;-68
2024/02/04 01:27:47;;;;;;;10.55;3.35;;;9.50;99.90;;;;;;6238652;23;20030;-67
2024/02/04 01:30:33;;;;;;;11.77;2.80;;;9.50;99.90;;;;;;6239930;23;20015;-68
2024/02/04 01:33:19;;;;;;;7.47;2.83;;;9.50;99.90;;;;;;6238542;23;20012;-68
2024/02/04 01:36:05;;;;;;;9.00;3.15;;;9.50;99.90;;;;;;6239003;23;20427;-68
2024/02/04 01:38:51;;;;;;;12.23;3.60;;;9.50;99.90;;;;;;6239220;23;20020;-68
2024/02/04 01:41:37;;;;;;;10.77;3.30;;;9.50;99.90;;;;;;6239394;23;20353;-68
2024/02/04 01:44:23;;;;;;;9.77;2.97;;;9.50;99.90;;;;;;6191624;23;1124956;-68
2024/02/04 01:47:09;;;;;;;7.00;2.83;;;9.50;99.90;;;;;;6242028;23;20024;-69
2024/02/04 01:49:55;;;;;;;6.65;2.30;;;9.50;99.90;;;;;;6240318;23;20008;-69
2024/02/04 01:52:42;;;;;;;8.98;2.67;;;9.50;99.90;;;;;;6240644;23;20008;-69
2024/02/04 01:55:28;;;;;;;11.60;3.72;;;9.40;99.90;;;;;;6242004;23;20333;-68
2024/02/04 01:58:14;;;;;;;12.05;4.47;;;9.40;99.90;;;;;;6239874;23;20321;-62
2024/02/04 02:01:01;;;;;;;7.22;3.10;;;9.40;99.90;;;;;;6241123;23;20004;-63
2024/02/04 02:03:50;;;;;;;7.50;2.90;;;9.40;99.90;;;;;;6241265;23;20441;-63
2024/02/04 02:06:41;;;;;;;8.00;2.38;;;9.40;99.90;;;;;;6240780;23;20020;-63
2024/02/04 02:09:29;;;;;;;9.68;3.40;;;9.40;99.90;;;;;;6239714;23;20008;-65
2024/02/04 02:12:22;;;;;;;11.27;3.47;;;9.40;99.90;;;;;;6240154;23;20008;-63
2024/02/04 02:15:23;;;;;;;4.65;2.92;;;9.40;99.90;;;;;;6240922;23;20493;-63
2024/02/04 02:18:25;;;;;;;7.35;3.50;;;9.40;99.90;;;;;;6241227;23;20004;-64
2024/02/04 02:21:48;;;;;;;11.45;2.80;;;9.30;99.90;;;;;;6239148;23;20018;-63
2024/02/04 02:24:38;;;;;;;8.00;3.38;;;9.30;99.90;;;;;;6242576;23;20364;-63
2024/02/04 02:27:24;;;;;;;7.85;2.78;;;9.30;99.90;;;;;;6240392;23;20024;-64
2024/02/04 02:30:10;;;;;;;12.15;3.63;;;9.30;99.90;;;;;;6239565;23;20015;-64
2024/02/04 02:32:57;;;;;;;10.10;3.30;;;9.20;99.90;;;;;;6240206;23;20083;-64
2024/02/04 02:35:46;;;;;;;9.30;3.22;;;9.20;99.90;;;;;;6242558;23;20013;-63
2024/02/04 02:38:47;;;;;;;10.40;4.38;;;9.30;99.90;;;;;;6240885;23;20332;-63
2024/02/04 02:41:34;;;;;;;10.20;2.83;;;9.30;99.90;;;;;;6240902;23;20457;-64
2024/02/04 02:44:21;;;;;;;5.63;3.15;;;9.20;99.90;;;;;;6239337;23;20031;-63
2024/02/04 02:47:08;;;;;;;11.65;3.38;;;9.20;99.90;;;;;;6241398;23;20063;-64
2024/02/04 02:49:54;;;;;;;8.02;3.22;;;9.20;99.90;;;;;;6242612;23;20011;-64
2024/02/04 02:52:40;;;;;;;11.88;2.83;;;9.20;99.90;;;;;;6243272;23;20009;-64
2024/02/04 02:55:26;;;;;;;7.68;2.90;;;9.20;99.90;;;;;;6243038;23;20406;-64
2024/02/04 02:58:13;;;;;;;11.43;3.42;;;9.10;99.90;;;;;;6242426;23;20441;-64
2024/02/04 03:00:59;;;;;;;10.02;2.90;;;9.20;99.90;;;;;;6241684;23;20015;-63
2024/02/04 03:03:45;;;;;;;10.07;3.03;;;9.10;99.90;;;;;;6242383;23;20036;-64
2024/02/04 03:06:31;;;;;;;11.10;2.90;;;9.20;99.90;;;;;;6243735;23;20026;-67
2024/02/04 03:09:17;;;;;;;11.77;4.22;;;9.20;99.90;;;;;;6242544;23;20009;-67
2024/02/04 03:12:03;;;;;;;7.60;3.22;;;9.20;99.90;;;;;;6243702;23;20008;-68
2024/02/04 03:14:49;;;;;;;5.68;2.42;;;9.20;99.90;;;;;;6242343;23;20004;-68
2024/02/04 03:17:35;;;;;;;9.13;2.78;;;9.20;99.90;;;;;;6241492;23;20008;-68
2024/02/04 03:20:21;;;;;;;8.93;3.28;;;9.30;99.90;;;;;;6242826;23;20035;-68
2024/02/04 03:23:07;;;;;;;8.90;3.30;;;9.20;99.90;;;;;;6241874;23;20095;-68
2024/02/04 03:25:52;;;;;;;7.32;2.38;;;9.20;99.90;;;;;;6242384;23;20016;-67
2024/02/04 03:28:38;;;;;;;6.63;2.67;;;9.20;99.90;;;;;;6241464;23;20095;-68
2024/02/04 03:31:24;;;;;;;8.70;3.53;;;9.30;99.90;;;;;;6241924;23;20016;-68
2024/02/04 03:34:10;;;;;;;7.55;3.65;;;9.40;99.90;;;;;;6242913;23;20062;-68
2024/02/04 03:36:56;;;;;;;9.85;3.53;;;9.40;99.90;;;;;;6242157;23;20012;-68
2024/02/04 03:39:42;;;;;;;8.27;3.75;;;9.30;99.90;;;;;;6242298;23;20023;-68
2024/02/04 03:42:28;;;;;;;5.30;2.80;;;9.30;99.90;;;;;;6242369;23;20012;-68
2024/02/04 03:45:14;;;;;;;10.02;3.50;;;9.40;99.90;;;;;;6243885;23;20434;-67
2024/02/04 03:48:00;;;;;;;8.55;3.80;;;9.40;99.90;;;;;;6242130;23;20396;-68
2024/02/04 03:50:46;;;;;;;8.05;2.95;;;9.40;99.90;;;;;;6241957;23;20000;-68
2024/02/04 03:53:33;;;;;;;5.85;3.05;;;9.40;99.90;;;;;;6241692;23;20435;-68
2024/02/04 03:56:19;;;;;;;8.38;3.17;;;9.40;99.90;;;;;;6242549;23;20015;-67
2024/02/04 03:59:06;;;;;;;9.20;2.90;;;9.50;99.90;;;;;;6241441;23;20418;-67
2024/02/04 04:01:54;;;;;;;6.78;3.90;;;9.50;99.90;;;;;;6241714;23;20012;-67
2024/02/04 04:04:43;;;;;;;5.47;2.97;;;9.40;99.90;;;;;;6241385;23;20345;-68
2024/02/04 04:07:28;;;;;;;7.63;2.75;;;9.50;99.90;;;;;;6241159;23;20020;-67
2024/02/04 04:10:14;;;;;;;6.40;2.92;;;9.50;99.90;;;;;;6241010;23;20011;-67
2024/02/04 04:13:00;;;;;;;10.30;4.03;;;9.50;99.90;;;;;;6241575;23;20038;-69
2024/02/04 04:15:46;;;;;;;8.15;2.92;;;9.50;99.90;;;;;;6220322;23;20015;-68
2024/02/04 04:18:32;;;;;;;6.70;2.70;;;9.50;99.90;;;;;;6241139;23;20008;-69
2024/02/04 04:21:18;;;;;;;6.47;2.85;;;9.40;99.90;;;;;;6241318;23;20070;-69
2024/02/04 04:24:04;;;;;;;6.78;2.22;;;9.40;99.90;;;;;;6221042;23;20013;-70
2024/02/04 04:26:50;;;;;;;8.07;2.60;;;9.40;99.90;;;;;;6242332;23;20019;-69
2024/02/04 04:29:36;;;;;;;5.80;2.40;;;9.40;99.90;;;;;;6242758;23;20024;-66
2024/02/04 04:32:22;;;;;;;6.30;2.40;;;9.40;99.90;;;;;;6241730;23;20069;-66
2024/02/04 04:35:08;;;;;;;9.45;2.45;;;9.50;99.90;;;;;;6241536;23;20380;-66
2024/02/04 04:37:54;;;;;;;7.97;3.00;;;9.30;99.90;;;;;;6240583;23;20027;-67
2024/02/04 04:40:43;;;;;;;9.48;2.70;;;9.30;99.90;;;;;;6241645;23;20008;-67
2024/02/04 04:43:29;;;;;;;7.50;2.60;;;9.30;99.90;;;;;;6240782;22;20020;-66
2024/02/04 04:46:14;;;;;;;8.27;2.72;;;9.30;99.90;;;;;;6240192;23;20066;-66
2024/02/04 04:49:00;;;;;;;9.60;3.05;;;9.20;99.90;;;;;;6243042;23;20004;-68
2024/02/04 04:51:46;;;;;;;8.40;2.60;;;9.20;99.90;;;;;;6242308;23;20016;-68
2024/02/04 04:54:32;;;;;;;7.75;2.85;;;9.20;99.90;;;;;;6241056;23;20061;-67
2024/02/04 04:57:19;;;;;;;4.85;2.42;;;9.10;99.90;;;;;;6241489;23;20457;-67
2024/02/04 05:00:07;;;;;;;8.60;2.95;;;9.10;99.90;;;;;;6241947;23;20062;-67
2024/02/04 05:02:52;;;;;;;5.38;2.28;;;9.10;99.90;;;;;;6240327;23;20086;-68
2024/02/04 05:05:38;;;;;;;7.82;3.05;;;9.10;99.90;;;;;;6241760;23;20352;-68
2024/02/04 05:08:24;;;;;;;7.15;1.98;;;9.10;99.90;;;;;;6240019;23;20012;-67
2024/02/04 05:11:10;;;;;;;6.25;2.13;;;9.10;99.90;;;;;;6241307;23;20012;-67
2024/02/04 05:13:56;;;;;;;7.80;3.03;;;9.00;99.90;;;;;;6220223;23;20016;-67
2024/02/04 05:16:43;;;;;;;8.68;2.80;;;9.00;99.90;;;;;;6240836;23;20364;-67
2024/02/04 05:19:29;;;;;;;6.93;2.30;;;9.00;99.90;;;;;;6239596;23;20065;-66
2024/02/04 05:22:15;;;;;;;9.20;2.42;;;9.00;99.90;;;;;;6240041;23;20344;-66
2024/02/04 05:25:01;;;;;;;8.52;3.00;;;9.00;99.90;;;;;;6240276;23;20093;-66
2024/02/04 05:27:47;;;;;;;7.50;1.95;;;9.00;99.90;;;;;;6240902;23;20052;-65
2024/02/04 05:30:33;;;;;;;7.70;2.72;;;8.90;99.90;;;;;;6240358;23;20012;-66
2024/02/04 05:33:19;;;;;;;5.18;2.00;;;9.00;99.90;;;;;;6240669;23;20035;-66
2024/02/04 05:36:05;;;;;;;7.68;2.03;;;8.90;99.90;;;;;;6241896;23;20364;-66
2024/02/04 05:38:51;;;;;;;6.72;2.72;;;8.90;99.90;;;;;;6240202;23;20395;-66
2024/02/04 05:41:37;;;;;;;5.82;2.92;;;8.90;99.90;;;;;;6239775;23;20322;-66
2024/02/04 05:44:23;;;;;;;5.65;2.70;;;8.90;99.90;;;;;;6241052;23;20028;-68
2024/02/04 05:47:09;;;;;;;7.72;1.98;;;8.90;99.90;;;;;;6240670;23;20020;-67
2024/02/04 05:49:55;;;;;;;7.47;2.80;;;8.80;99.90;;;;;;6240459;23;20008;-68
2024/02/04 05:52:41;;;;;;;6.50;2.30;;;8.80;99.90;;;;;;6239986;23;20012;-69
2024/02/04 05:55:27;;;;;;;3.90;2.08;;;8.80;99.90;;;;;;6240026;23;20008;-68
2024/02/04 05:58:13;;;;;;;6.15;2.13;;;8.70;99.90;;;;;;6240297;23;20054;-69
2024/02/04 06:00:59;;;;;;;6.30;2.50;;;8.70;99.90;;;;;;6239810;23;20464;-67
2024/02/04 06:03:46;;;;;;;6.70;2.45;;;8.70;99.90;;;;;;6241222;23;20031;-67
2024/02/04 06:06:32;;;;;;;5.82;2.60;;;8.80;99.90;;;;;;6240448;23;20031;-67
2024/02/04 06:09:18;;;;;;;9.95;2.67;;;8.70;99.90;;;;;;6240310;23;20016;-68
2024/02/04 06:12:06;;;;;;;5.30;2.05;;;8.70;99.90;;;;;;6240281;23;20020;-68
2024/02/04 06:14:52;;;;;;;7.03;2.47;;;8.70;99.90;;;;;;6240100;23;20015;-68
2024/02/04 06:17:38;;;;;;;4.95;2.33;;;8.70;99.90;;;;;;6240486;23;20449;-67
2024/02/04 06:20:24;;;;;;;5.47;2.45;;;8.80;99.90;;;;;;6237848;23;20346;-68
2024/02/04 06:23:09;;;;;;;6.30;2.38;;;8.80;99.90;;;;;;6241880;23;20019;-67
2024/02/04 06:25:55;;;;;;;9.32;3.05;;;8.80;99.90;;;;;;6239718;23;20035;-67
2024/02/04 06:28:45;;;;;;;7.50;2.75;;;8.90;99.90;;;;;;6240149;23;20058;-67
2024/02/04 06:31:30;;;;;;;7.78;3.17;;;8.90;99.90;;;;;;6240060;23;20048;-68
2024/02/04 06:34:16;;;;;;;7.80;2.92;;;8.80;99.90;;;;;;6239875;23;20020;-67
2024/02/04 06:37:02;;;;;;;8.98;2.97;;;8.90;99.90;;;;;;6239789;23;20111;-67
2024/02/04 06:39:48;;;;;;;7.85;2.45;;;8.80;99.90;;;;;;6240046;23;20019;-67
2024/02/04 06:42:34;;;;;;;7.82;2.60;;;8.80;99.90;;;;;;6240505;23;20008;-67
2024/02/04 06:45:20;;;;;;;6.63;2.63;;;8.80;99.90;;;;;;6240156;23;20020;-67
2024/02/04 06:48:07;;;;;;;7.07;3.00;;;8.80;99.90;;;;;;6218694;23;20020;-67
2024/02/04 06:50:53;;;;;;;6.50;2.97;;;8.70;99.90;;;;;;6240358;23;20008;-68
2024/02/04 06:53:39;;;;;;;5.20;3.10;;;8.80;99.90;;;;;;6240413;23;20433;-67
2024/02/04 06:56:25;;;;;;;8.10;3.90;;;8.80;99.90;;;;;;6242667;23;20011;-68
2024/02/04 06:59:11;;;;;;;7.72;3.30;;;8.80;99.90;;;;;;6241233;23;20047;-67
2024/02/04 07:01:57;;;;;;;8.23;4.07;;;8.90;99.90;;;;;;6241967;23;20004;-67
2024/02/04 07:04:43;;;;;;;10.30;3.58;;;8.90;99.90;;;;;;6239194;23;20043;-68
2024/02/04 07:07:28;;;;;;;5.32;3.13;;;8.90;99.90;;;;;;6240011;23;20103;-68
2024/02/04 07:10:15;;;;;;;10.07;3.70;;;8.90;99.90;;;;;;6239437;23;20019;-68
2024/02/04 07:13:01;;;;;;;9.38;4.15;;;8.90;99.90;;;;;;6241689;23;20449;-68
2024/02/04 07:15:47;;;;;;;6.57;3.80;;;8.90;99.90;;;;;;6239698;23;20091;-68
2024/02/04 07:18:33;;;;;;;8.38;4.10;;;8.90;99.90;;;;;;6240017;23;20008;-68
2024/02/04 07:21:19;;;;;;;7.75;4.00;;;8.90;99.90;;;;;;6238858;23;20012;-68
2024/02/04 07:24:05;;;;;;;8.43;4.10;;;8.90;99.90;;;;;;6239464;23;20170;-68
2024/02/04 07:26:51;;;;;;;7.53;3.00;;;8.90;99.90;;;;;;6240142;23;20020;-68
2024/02/04 07:29:37;;;;;;;8.27;3.67;;;8.90;99.90;;;;;;6240225;23;20035;-68
2024/02/04 07:32:23;;;;;;;9.13;4.07;;;8.90;99.90;;;;;;6240136;23;20429;-66
2024/02/04 07:35:09;;;;;;;7.93;4.68;;;9.00;99.90;;;;;;6242183;23;20452;-67
2024/02/04 07:37:55;;;;;;;12.35;4.05;;;9.00;99.90;;;;;;6241078;23;20062;-67
2024/02/04 07:40:41;;;;;;;7.88;3.85;;;9.00;99.90;;;;;;6242634;22;20047;-67
2024/02/04 07:43:27;;;;;;;8.63;3.85;;;9.00;99.90;;;;;;6241610;23;20024;-67
2024/02/04 07:46:14;;;;;;;11.48;4.50;;;9.10;99.90;;;;;;6241554;23;20077;-67
2024/02/04 07:49:00;;;;;;;5.30;3.50;;;9.10;99.90;;;;;;6242384;23;20008;-66
2024/02/04 07:51:46;;;;;;;6.57;3.25;;;9.10;99.90;;;;;;6220812;23;20076;-66
2024/02/04 07:54:32;;;;;;;7.32;3.67;;;9.10;99.90;;;;;;6241726;23;20416;-69
2024/02/04 07:57:18;;;;;;;6.25;3.17;;;9.20;99.90;;;;;;6241745;23;20008;-67
2024/02/04 08:00:06;;;;;;;8.05;3.70;;;9.20;99.90;;;;;;6241583;23;20345;-66
2024/02/04 08:02:52;;;;;;;9.38;3.95;;;9.20;99.90;;;;;;6241895;23;20012;-68
2024/02/04 08:05:38;;;;;;;6.40;3.60;;;9.20;99.90;;;;;;6242085;23;20016;-68
2024/02/04 08:08:24;;;;;;;7.15;3.95;;;9.30;99.90;;;;;;6242048;23;20028;-67
2024/02/04 08:11:10;;;;;;;8.32;4.25;;;9.30;99.90;;;;;;6241229;23;20091;-67
2024/02/04 08:13:56;;;;;;;7.32;4.18;;;9.40;99.90;;;;;;6239915;23;20094;-68
2024/02/04 08:16:43;;;;;;;13.98;3.90;;;9.40;99.90;;;;;;6241687;23;20134;-68
2024/02/04 08:19:28;;;;;;;7.18;3.70;;;9.40;99.90;;;;;;6241581;23;20016;-67
2024/02/04 08:22:14;;;;;;;7.55;3.95;;;9.50;99.90;;;;;;6240925;23;20004;-68
2024/02/04 08:25:02;;;;;;;6.97;4.28;;;9.60;99.90;;;;;;6241756;23;20044;-68
2024/02/04 08:27:48;;;;;;;10.48;4.35;;;9.60;99.90;;;;;;6241124;23;20020;-68
2024/02/04 08:30:34;;;;;;;9.55;3.40;;;9.60;99.90;;;;;;6242457;23;20381;-66
2024/02/04 08:33:20;;;;;;;8.85;3.70;;;9.70;99.90;;;;;;6240186;23;20007;-68
2024/02/04 08:36:06;;;;;;;11.13;3.03;;;9.70;99.90;;;;;;6241436;23;20006;-65
2024/02/04 08:38:52;;;;;;;8.80;3.28;;;9.70;99.90;;;;;;6243033;23;20008;-64
2024/02/04 08:41:38;;;;;;;8.55;3.50;;;9.70;99.90;;;;;;6243067;23;20011;-64
2024/02/04 08:44:24;;;;;;;7.30;3.05;;;9.80;99.90;;;;;;6239899;23;20016;-64
2024/02/04 08:47:12;;;;;;;9.80;3.05;;;9.70;99.90;;;;;;6241401;23;20548;-64
2024/02/04 08:49:59;;;;;;;6.68;3.22;;;9.70;99.90;;;;;;6242260;23;20035;-64
2024/02/04 08:52:44;;;;;;;10.15;3.28;;;9.80;99.90;;;;;;6241036;23;20012;-65
2024/02/04 08:55:30;;;;;;;7.45;2.50;;;9.80;99.90;;;;;;6240130;23;20015;-64
2024/02/04 08:58:16;;;;;;;8.50;2.90;;;9.80;99.90;;;;;;6240953;23;20012;-64
2024/02/04 09:01:06;;;;;;;8.68;2.70;;;9.90;99.90;;;;;;6241037;23;20425;-64
2024/02/04 09:03:52;;;;;;;7.15;2.95;;;9.90;99.90;;;;;;6240957;23;20043;-64
2024/02/04 09:06:38;;;;;;;7.82;2.58;;;10.00;99.90;;;;;;6240366;23;20016;-65
2024/02/04 09:09:24;;;;;;;4.65;2.83;;;10.00;99.90;;;;;;6241137;23;20008;-67
2024/02/04 09:12:10;;;;;;;7.03;2.67;;;10.10;99.90;;;;;;6239676;23;20063;-64
2024/02/04 09:14:56;;;;;;;7.55;3.17;;;10.10;99.90;;;;;;6220467;23;20016;-63
2024/02/04 09:17:41;;;;;;;5.55;2.58;;;10.10;99.90;;;;;;6241150;23;20012;-64
2024/02/04 09:20:27;;;;;;;8.98;3.00;;;10.20;99.90;;;;;;6242559;23;20015;-64
2024/02/04 09:23:13;;;;;;;6.43;2.70;;;10.20;99.90;;;;;;6241481;23;20011;-63
2024/02/04 09:25:59;;;;;;;10.63;3.97;;;10.30;99.90;;;;;;6242789;23;20083;-64
2024/02/04 09:28:45;;;;;;;7.90;2.40;;;10.30;99.90;;;;;;6239414;23;20094;-64
2024/02/04 09:31:31;;;;;;;5.32;2.70;;;10.40;99.90;;;;;;6240193;23;20022;-64
2024/02/04 09:34:18;;;;;;;8.25;2.63;;;10.40;99.90;;;;;;6241303;23;20011;-64
2024/02/04 09:37:04;;;;;;;9.45;2.75;;;10.40;99.90;;;;;;6240144;23;20012;-63
2024/02/04 09:39:50;;;;;;;7.93;2.97;;;10.50;99.90;;;;;;6238504;23;20004;-63
2024/02/04 09:42:36;;;;;;;6.75;2.38;;;10.50;99.90;;;;;;6241486;23;20382;-64
2024/02/04 09:45:22;;;;;;;5.72;2.67;;;10.50;99.90;;;;;;6242519;23;20020;-64
2024/02/04 09:48:08;;;;;;;7.25;2.55;;;10.60;99.90;;;;;;6240500;23;20024;-64
2024/02/04 09:50:54;;;;;;;5.90;2.42;;;10.60;99.90;;;;;;6240957;23;20058;-64
2024/02/04 09:53:44;;;;;;;7.72;2.85;;;10.60;99.90;;;;;;6240424;23;20437;-64
2024/02/04 09:56:31;;;;;;;3.95;1.95;;;10.60;99.80;;;;;;6242158;23;20004;-64
2024/02/04 09:59:17;;;;;;;8.23;2.58;;;10.60;99.70;;;;;;6240925;23;20267;-66
2024/02/04 10:02:04;;;;;;;9.48;3.03;;;10.70;99.70;;;;;;6240800;23;20008;-64
2024/02/04 10:04:50;;;;;;;5.30;2.03;;;10.70;99.60;;;;;;6241032;23;20448;-62
2024/02/04 10:07:37;;;;;;;7.95;2.33;;;10.80;99.50;;;;;;6239743;23;20039;-62
2024/02/04 10:10:23;;;;;;;8.10;2.13;;;10.80;99.30;;;;;;6239312;23;20008;-63
2024/02/04 10:13:09;;;;;;;5.70;2.03;;;10.80;99.20;;;;;;6241239;23;20008;-63
2024/02/04 10:15:56;;;;;;;9.18;2.28;;;10.80;99.00;;;;;;6237982;23;20302;-62
2024/02/04 10:18:46;;;;;;;7.63;2.42;;;10.80;98.80;;;;;;6238078;23;20388;-63
2024/02/04 10:21:32;;;;;;;5.18;1.88;;;10.80;98.60;;;;;;6239077;23;20008;-64
2024/02/04 10:24:18;;;;;;;7.88;2.35;;;10.80;98.60;;;;;;6239625;23;20026;-63
2024/02/04 10:27:04;;;;;;;5.75;1.90;;;10.80;98.50;;;;;;6239274;23;20020;-64
2024/02/04 10:29:50;;;;;;;4.82;2.30;;;10.80;98.50;;;;;;6240263;23;20015;-64
2024/02/04 10:32:36;;;;;;;8.57;2.40;;;10.80;98.40;;;;;;6242076;23;20027;-63
2024/02/04 10:35:23;;;;;;;7.80;1.90;;;10.80;98.40;;;;;;6241492;23;20089;-63
2024/02/04 10:38:10;;;;;;;5.32;2.25;;;10.90;98.40;;;;;;6242120;23;20027;-63
2024/02/04 10:40:59;;;;;;;7.45;1.90;;;10.90;98.20;;;;;;6238943;23;20012;-64
2024/02/04 14:14:44;;;;;;;5.70;2.50;;;10.50;95.20;;;;;;6242987;22;20407;-68
2024/02/04 14:17:30;;;;;;;8.73;2.72;;;10.50;95.30;;;;;;6220261;23;20016;-67
2024/02/04 14:20:17;;;;;;;8.52;2.47;;;10.50;95.20;;;;;;6239580;23;20027;-68
2024/02/04 14:23:03;;;;;;;10.88;2.85;;;10.50;95.20;;;;;;6239399;23;20008;-68
2024/02/04 14:25:49;;;;;;;7.63;2.72;;;10.50;95.30;;;;;;6238756;23;20087;-68
2024/02/04 14:28:41;;;;;;;13.65;3.17;;;10.50;95.30;;;;;;6239761;23;20345;-67
2024/02/04 14:31:27;;;;;;;6.70;2.85;;;10.50;95.30;;;;;;6240100;23;20012;-67
2024/02/04 14:34:13;;;;;;;6.72;2.17;;;10.50;95.50;;;;;;6238866;23;20378;-69
2024/02/04 14:36:59;;;;;;;5.93;2.35;;;10.50;95.50;;;;;;6239124;23;20043;-68
2024/02/04 14:39:45;;;;;;;6.72;2.33;;;10.50;95.50;;;;;;6241024;23;20437;-68
2024/02/04 14:42:31;;;;;;;4.63;1.98;;;10.50;95.60;;;;;;6239736;23;20443;-67
2024/02/04 14:45:18;;;;;;;6.43;2.50;;;10.50;95.60;;;;;;6241219;23;20008;-67
2024/02/04 14:48:05;;;;;;;5.80;2.25;;;10.50;95.50;;;;;;6241698;23;20027;-69
2024/02/04 14:50:51;;;;;;;7.53;2.03;;;10.50;95.60;;;;;;6241975;23;20015;-68
2024/02/04 14:53:37;;;;;;;6.32;2.47;;;10.50;95.60;;;;;;6242010;23;20019;-68
2024/02/04 14:56:23;;;;;;;6.60;2.25;;;10.50;95.60;;;;;;6241670;23;20022;-68
2024/02/04 14:59:10;;;;;;;6.85;2.35;;;10.50;95.60;;;;;;6241286;23;20094;-69
2024/02/04 15:01:56;;;;;;;6.95;2.65;;;10.60;95.60;;;;;;6243301;23;20111;-68
2024/02/04 15:04:42;;;;;;;5.82;2.20;;;10.60;95.60;;;;;;6240968;23;20099;-66
2024/02/04 15:07:28;;;;;;;7.45;2.58;;;10.50;95.60;;;;;;6241641;23;20028;-67
2024/02/04 15:10:14;;;;;;;6.72;2.35;;;10.50;95.60;;;;;;6240882;23;20008;-67
2024/02/04 15:13:01;;;;;;;7.32;3.03;;;10.60;95.60;;;;;;6240888;23;20020;-68
2024/02/04 15:15:47;;;;;;;7.40;2.97;;;10.60;95.60;;;;;;6242564;23;20346;-68
2024/02/04 15:18:34;;;;;;;17.83;4.47;;;10.60;95.60;;;;;;6243999;23;20012;-67
2024/02/04 15:21:20;;;;;;;7.90;2.28;;;10.60;95.70;;;;;;6242460;23;20004;-68
2024/02/04 15:24:06;;;;;;;4.30;2.20;;;10.50;95.60;;;;;;6243078;23;20012;-68
2024/02/04 15:26:53;;;;;;;7.00;1.90;;;10.50;95.60;;;;;;6240373;23;20099;-67
2024/02/04 15:29:41;;;;;;;7.85;2.45;;;10.50;95.60;;;;;;6240931;23;20011;-68
2024/02/04 15:32:27;;;;;;;4.85;2.10;;;10.50;95.60;;;;;;6243089;23;20449;-68
2024/02/04 15:35:14;;;;;;;7.38;2.63;;;10.50;95.70;;;;;;6242887;23;20012;-67
2024/02/04 15:38:00;;;;;;;6.03;2.33;;;10.50;95.70;;;;;;6241438;23;20031;-68
2024/02/04 15:40:47;;;;;;;5.55;2.25;;;10.50;95.70;;;;;;6241146;23;20004;-68
2024/02/04 15:43:33;;;;;;;6.47;2.42;;;10.50;95.70;;;;;;6242806;23;20008;-60
2024/02/04 15:46:20;;;;;;;8.02;2.83;;;10.50;95.60;;;;;;6243401;23;20008;-60
2024/02/04 15:49:11;;;;;;;4.68;2.20;;;10.50;95.60;;;;;;6242614;23;20039;-60
2024/02/04 15:51:58;;;;;;;5.38;2.72;;;10.50;95.60;;;;;;6242671;23;20004;-61
2024/02/04 15:54:44;;;;;;;7.13;2.40;;;10.50;95.60;;;;;;6241694;23;20013;-60
2024/02/04 15:57:34;;;;;;;8.50;2.63;;;10.50;95.60;;;;;;6242697;23;20015;-61
2024/02/04 16:00:27;;;;;;;8.35;2.65;;;10.50;95.60;;;;;;6242706;23;20012;-60
2024/02/04 16:03:16;;;;;;;8.98;2.88;;;10.50;95.60;;;;;;6241552;23;20031;-61
2024/02/04 16:06:02;;;;;;;9.23;2.08;;;10.50;95.60;;;;;;6241489;23;20372;-61
2024/02/04 16:08:49;;;;;;;6.20;1.98;;;10.50;95.70;;;;;;6240992;23;20012;-61
2024/02/04 16:11:46;;;;;;;7.63;2.38;;;10.50;95.60;;;;;;6241610;23;20039;-60
2024/02/04 16:14:43;;;;;;;4.72;2.25;;;10.50;95.60;;;;;;6241568;23;20051;-61
2024/02/04 16:17:32;;;;;;;6.82;2.17;;;10.50;95.60;;;;;;6243345;23;20031;-61
2024/02/04 16:20:19;;;;;;;5.70;2.38;;;10.50;95.60;;;;;;6242420;23;20008;-60
2024/02/04 16:23:06;;;;;;;6.82;1.98;;;10.50;95.60;;;;;;6242370;23;20019;-60
2024/02/04 16:25:52;;;;;;;6.03;1.90;;;10.50;95.60;;;;;;6241762;23;20508;-61
2024/02/04 16:28:38;;;;;;;4.50;2.13;;;10.50;95.90;;;;;;6241818;23;20352;-61
2024/02/04 16:31:24;;;;;;;6.38;1.85;;;10.50;95.60;;;;;;6239923;23;20008;-60
2024/02/04 16:34:10;;;;;;;6.03;2.67;;;10.60;95.70;;;;;;6241430;23;20008;-61
2024/02/04 16:36:56;;;;;;;11.75;2.67;;;10.50;95.60;;;;;;6241123;23;20372;-60
2024/02/04 16:39:44;;;;;;;4.95;2.80;;;10.50;95.70;;;;;;6241255;23;20015;-61
2024/02/04 16:42:34;;;;;;;5.95;2.67;;;10.50;95.90;;;;;;6237429;23;20345;-60
2024/02/04 16:45:20;;;;;;;4.82;2.17;;;10.50;95.90;;;;;;6241212;23;20576;-60
2024/02/04 16:48:07;;;;;;;7.30;2.45;;;10.50;95.70;;;;;;6240029;23;20024;-61
2024/02/04 16:50:52;;;;;;;6.65;2.33;;;10.50;95.70;;;;;;6243254;23;20342;-61
2024/02/04 16:53:38;;;;;;;4.85;2.25;;;10.50;95.70;;;;;;6240400;23;20066;-61
2024/02/04 16:56:24;;;;;;;9.13;2.90;;;10.50;95.70;;;;;;6241267;23;20023;-61
2024/02/04 16:59:10;;;;;;;6.07;2.10;;;10.60;95.70;;;;;;6241608;23;20368;-60
2024/02/04 17:01:56;;;;;;;5.38;1.90;;;10.50;95.70;;;;;;6241549;23;20043;-60
2024/02/04 17:04:43;;;;;;;4.13;2.00;;;10.50;95.70;;;;;;6241702;23;20019;-60
2024/02/04 17:07:29;;;;;;;4.90;2.10;;;10.60;95.80;;;;;;6241603;23;20016;-60
2024/02/04 17:10:15;;;;;;;8.57;2.85;;;10.60;95.80;;;;;;6240861;23;20042;-61
2024/02/04 17:13:01;;;;;;;5.57;2.55;;;10.60;95.70;;;;;;6240797;23;20031;-60
2024/02/04 17:15:48;;;;;;;5.78;2.65;;;10.60;95.80;;;;;;6240040;23;20323;-60
2024/02/04 17:18:54;;;;;;;5.85;2.22;;;10.60;95.80;;;;;;6241067;23;20070;-60
2024/02/04 17:21:42;;;;;;;6.13;2.20;;;10.60;95.90;;;;;;6241226;23;20445;-61
2024/02/04 17:24:28;;;;;;;4.75;2.13;;;10.60;95.90;;;;;;6239476;23;20042;-60
2024/02/04 17:27:15;;;;;;;12.85;3.53;;;10.60;95.90;;;;;;6241535;23;20074;-60
2024/02/04 17:30:01;;;;;;;4.88;1.75;;;10.60;95.90;;;;;;6242144;23;20016;-61
2024/02/04 17:32:52;;;;;;;3.78;1.83;;;10.60;95.90;;;;;;6219728;23;20012;-59
2024/02/04 17:35:37;;;;;;;7.93;2.00;;;10.60;96.00;;;;;;6241527;23;20004;-61
2024/02/04 17:38:23;;;;;;;4.75;2.17;;;10.60;96.00;;;;;;6241067;23;20014;-60
2024/02/04 17:41:10;;;;;;;6.63;1.98;;;10.60;96.00;;;;;;6240903;23;20040;-60
2024/02/04 17:43:56;;;;;;;5.38;2.58;;;10.60;96.00;;;;;;6219278;23;20377;-60
2024/02/04 17:46:42;;;;;;;6.38;2.50;;;10.60;96.00;;;;;;6242092;23;20534;-60
2024/02/04 17:49:28;;;;;;;6.00;2.10;;;10.60;96.00;;;;;;6240922;23;20400;-61
2024/02/04 17:52:14;;;;;;;7.80;2.80;;;10.60;96.00;;;;;;6220319;23;20023;-61
2024/02/04 17:55:00;;;;;;;3.95;1.67;;;10.60;96.00;;;;;;6242071;23;20433;-61
2024/02/04 17:57:47;;;;;;;4.75;1.83;;;10.60;96.10;;;;;;6239730;23;20031;-61
2024/02/04 18:00:33;;;;;;;3.17;1.90;;;10.50;96.10;;;;;;6240809;23;20056;-61
2024/02/04 18:03:19;;;;;;;5.28;2.22;;;10.60;96.20;;;;;;6219605;23;20008;-60